createdAt,value
2023-05-15T00:00:43.935Z,46.71
2023-05-15T00:03:11.827Z,46.76
2023-05-15T00:05:39.095Z,46.69
2023-05-15T00:08:11.179Z,46.62
2023-05-15T00:10:39.359Z,46.69
2023-05-15T00:13:08.081Z,46.75
2023-05-15T00:15:34.920Z,46.40
2023-05-15T00:18:07.042Z,46.54
2023-05-15T00:20:34.474Z,46.30
2023-05-15T00:23:01.876Z,45.99
2023-05-15T00:25:28.977Z,45.92
2023-05-15T00:27:55.742Z,45.76
2023-05-15T00:30:22.545Z,45.55
2023-05-15T00:32:54.632Z,45.68
2023-05-15T00:35:21.507Z,45.45
2023-05-15T00:37:48.326Z,45.22
2023-05-15T00:40:19.224Z,45.05
2023-05-15T00:42:46.346Z,45.04
2023-05-15T00:45:13.162Z,45.28
2023-05-15T00:47:40.589Z,44.88
2023-05-15T00:50:09.780Z,44.47
2023-05-15T00:52:36.945Z,44.68
2023-05-15T00:55:06.372Z,44.67
2023-05-15T00:57:33.484Z,44.35
2023-05-15T01:00:00.377Z,44.40
2023-05-15T01:02:27.381Z,44.61
2023-05-15T01:04:54.420Z,44.64
2023-05-15T01:07:22.108Z,44.32
2023-05-15T01:09:49.123Z,44.42
2023-05-15T01:12:16.368Z,44.12
2023-05-15T01:14:43.129Z,44.11
2023-05-15T01:17:09.973Z,44.29
2023-05-15T01:19:38.203Z,44.23
2023-05-15T01:22:16.721Z,44.03
2023-05-15T01:24:59.257Z,44.29
2023-05-15T01:27:39.457Z,44.07
2023-05-15T01:30:18.115Z,44.13
2023-05-15T01:33:23.457Z,44.17
2023-05-15T01:35:55.561Z,44.16
2023-05-15T01:38:55.626Z,44.47
2023-05-15T01:41:45.380Z,44.73
2023-05-15T01:44:19.694Z,44.74
2023-05-15T01:46:49.424Z,44.68
2023-05-15T01:49:18.380Z,44.86
2023-05-15T01:51:47.511Z,44.90
2023-05-15T01:54:14.556Z,44.92
2023-05-15T01:56:42.781Z,44.98
2023-05-15T01:59:09.815Z,45.04
2023-05-15T02:01:36.782Z,45.07
2023-05-15T02:04:08.893Z,45.35
2023-05-15T02:06:36.043Z,45.28
2023-05-15T02:09:04.466Z,45.58
2023-05-15T02:11:36.782Z,45.59
2023-05-15T02:14:04.449Z,45.62
2023-05-15T02:16:32.104Z,45.32
2023-05-15T02:18:59.231Z,45.37
2023-05-15T02:21:26.155Z,45.50
2023-05-15T02:23:53.357Z,45.77
2023-05-15T02:26:51.877Z,45.89
2023-05-15T02:29:23.150Z,45.69
2023-05-15T02:32:12.506Z,45.41
2023-05-15T02:34:49.670Z,45.24
2023-05-15T02:37:17.776Z,44.82
2023-05-15T02:39:45.608Z,44.66
2023-05-15T02:42:13.690Z,44.49
2023-05-15T02:44:41.936Z,44.51
2023-05-15T02:47:09.775Z,44.49
2023-05-15T02:49:37.203Z,44.59
2023-05-15T02:52:04.991Z,44.42
2023-05-15T02:54:32.234Z,44.49
2023-05-15T02:56:59.510Z,44.41
2023-05-15T02:59:26.554Z,44.22
2023-05-15T03:01:53.497Z,44.07
2023-05-15T03:04:20.424Z,44.17
2023-05-15T03:06:47.456Z,44.34
2023-05-15T03:09:14.346Z,44.68
2023-05-15T03:11:41.492Z,44.94
2023-05-15T03:14:08.413Z,44.72
2023-05-15T03:16:36.671Z,44.52
2023-05-15T03:19:04.044Z,44.39
2023-05-15T03:21:31.284Z,45.70
2023-05-15T03:23:58.087Z,45.11
2023-05-15T03:26:25.224Z,45.40
2023-05-15T03:28:53.027Z,45.10
2023-05-15T03:31:19.912Z,45.01
2023-05-15T03:33:49.454Z,45.14
2023-05-15T03:36:16.620Z,45.36
2023-05-15T03:38:44.045Z,45.71
2023-05-15T03:41:11.008Z,45.90
2023-05-15T03:43:37.938Z,46.10
2023-05-15T03:46:11.138Z,46.60
2023-05-15T03:48:40.862Z,46.15
2023-05-15T03:51:07.673Z,45.33
2023-05-15T03:53:34.426Z,44.66
2023-05-15T03:56:01.314Z,44.59
2023-05-15T03:58:28.227Z,44.64
2023-05-15T04:00:55.273Z,44.90
2023-05-15T04:03:22.201Z,45.04
2023-05-15T04:05:49.574Z,45.33
2023-05-15T04:08:21.701Z,45.55
2023-05-15T04:10:48.577Z,45.40
2023-05-15T04:13:15.585Z,45.64
2023-05-15T04:15:43.040Z,45.59
2023-05-15T04:18:10.914Z,44.95
2023-05-15T04:20:38.038Z,44.99
2023-05-15T04:23:05.248Z,44.98
2023-05-15T04:25:32.090Z,45.38
2023-05-15T04:27:59.106Z,45.61
2023-05-15T04:30:26.371Z,45.97
2023-05-15T04:32:53.402Z,46.61
2023-05-15T04:35:20.394Z,46.76
2023-05-15T04:37:47.576Z,47.57
2023-05-15T04:40:15.744Z,48.39
2023-05-15T04:42:43.104Z,49.93
2023-05-15T04:45:10.641Z,50.49
2023-05-15T04:47:38.080Z,49.00
2023-05-15T04:50:06.110Z,48.02
2023-05-15T04:52:33.324Z,46.67
2023-05-15T04:55:00.224Z,46.07
2023-05-15T04:57:27.113Z,45.57
2023-05-15T04:59:54.132Z,45.41
2023-05-15T05:02:24.224Z,45.54
2023-05-15T05:04:51.105Z,46.01
2023-05-15T05:07:18.056Z,46.18
2023-05-15T05:09:45.002Z,45.71
2023-05-15T05:12:11.790Z,45.16
2023-05-15T05:14:41.649Z,45.90
2023-05-15T05:17:09.112Z,45.81
2023-05-15T05:19:37.206Z,44.82
2023-05-15T05:22:04.772Z,44.40
2023-05-15T05:24:32.000Z,44.45
2023-05-15T05:26:59.753Z,43.97
2023-05-15T05:29:26.594Z,42.92
2023-05-15T05:31:53.730Z,42.97
2023-05-15T05:34:20.891Z,43.05
2023-05-15T05:36:48.311Z,43.07
2023-05-15T05:39:18.490Z,42.66
2023-05-15T05:41:45.655Z,42.10
2023-05-15T05:44:14.133Z,42.16
2023-05-15T05:46:41.066Z,41.54
2023-05-15T05:49:08.207Z,41.34
2023-05-15T05:51:36.574Z,40.82
2023-05-15T05:54:04.965Z,40.82
2023-05-15T05:56:34.571Z,41.29
2023-05-15T05:59:01.860Z,40.19
2023-05-15T06:01:29.110Z,40.37
2023-05-15T06:03:56.925Z,40.34
2023-05-15T06:06:23.984Z,40.14
2023-05-15T06:08:51.759Z,39.57
2023-05-15T06:11:19.510Z,39.42
2023-05-15T06:13:46.526Z,39.06
2023-05-15T06:16:13.479Z,38.69
2023-05-15T06:18:40.480Z,38.74
2023-05-15T06:21:08.531Z,38.13
2023-05-15T06:23:36.825Z,37.71
2023-05-15T06:26:03.920Z,37.68
2023-05-15T06:28:31.035Z,38.04
2023-05-15T06:30:58.218Z,37.30
2023-05-15T06:33:27.643Z,37.60
2023-05-15T06:35:55.100Z,37.24
2023-05-15T06:38:22.255Z,37.14
2023-05-15T06:40:51.804Z,36.82
2023-05-15T06:43:21.490Z,36.06
2023-05-15T06:45:49.071Z,36.62
2023-05-15T06:48:15.928Z,35.42
2023-05-15T06:50:42.913Z,35.48
2023-05-15T06:53:10.891Z,35.79
2023-05-15T07:03:46.900Z,34.74
2023-05-15T07:06:14.047Z,34.13
2023-05-15T07:08:41.019Z,33.83
2023-05-15T07:11:07.939Z,34.07
2023-05-15T07:13:34.926Z,32.82
2023-05-15T07:16:02.757Z,32.81
2023-05-15T07:18:30.174Z,31.09
2023-05-15T07:20:57.291Z,30.78
2023-05-15T07:23:24.160Z,30.75
2023-05-15T07:25:54.036Z,30.18
2023-05-15T07:28:22.392Z,30.60
2023-05-15T07:30:50.022Z,29.62
2023-05-15T07:33:21.925Z,28.79
2023-05-15T07:35:50.286Z,28.65
2023-05-15T07:38:17.820Z,27.68
2023-05-15T07:40:44.847Z,27.92
2023-05-15T07:43:11.889Z,28.83
2023-05-15T07:45:38.784Z,29.08
2023-05-15T07:48:16.527Z,28.67
2023-05-15T07:50:45.477Z,29.17
2023-05-15T07:53:13.472Z,29.78
2023-05-15T07:55:41.004Z,30.08
2023-05-15T07:58:07.811Z,28.82
2023-05-15T08:00:35.914Z,28.90
2023-05-15T08:03:02.874Z,28.77
2023-05-15T08:05:32.625Z,28.27
2023-05-15T08:08:00.307Z,28.47
2023-05-15T08:10:27.122Z,27.96
2023-05-15T08:12:53.999Z,27.58
2023-05-15T08:15:21.010Z,27.53
2023-05-15T08:17:47.857Z,27.09
2023-05-15T08:20:16.164Z,27.43
2023-05-15T08:22:43.014Z,26.95
2023-05-15T08:25:09.981Z,25.77
2023-05-15T08:27:39.303Z,24.14
2023-05-15T08:30:08.805Z,24.00
2023-05-15T08:32:35.888Z,24.00
2023-05-15T08:35:02.832Z,24.85
2023-05-15T08:37:31.371Z,24.51
2023-05-15T08:39:58.136Z,24.45
2023-05-15T08:42:31.343Z,24.12
2023-05-15T08:45:00.547Z,23.16
2023-05-15T08:47:28.519Z,24.07
2023-05-15T08:50:13.676Z,23.40
2023-05-15T08:52:47.143Z,23.48
2023-05-15T08:55:14.686Z,23.85
2023-05-15T08:57:42.047Z,22.62
2023-05-15T09:00:11.459Z,22.74
2023-05-15T09:02:39.167Z,22.82
2023-05-15T09:05:06.727Z,21.25
2023-05-15T09:07:33.758Z,21.69
2023-05-15T09:10:01.783Z,19.86
2023-05-15T09:12:28.693Z,20.12
2023-05-15T09:15:17.148Z,19.06
2023-05-15T09:17:44.568Z,19.60
2023-05-15T09:20:34.365Z,19.08
2023-05-15T09:23:03.339Z,18.87
2023-05-15T09:25:41.131Z,18.63
2023-05-15T09:28:24.431Z,18.16
2023-05-15T09:30:56.684Z,17.42
2023-05-15T09:33:36.688Z,16.63
2023-05-15T09:36:04.846Z,15.78
2023-05-15T09:38:41.589Z,15.01
2023-05-15T09:41:08.599Z,14.87
2023-05-15T09:43:39.280Z,14.83
2023-05-15T09:46:12.482Z,15.35
2023-05-15T09:48:39.735Z,15.76
2023-05-15T09:51:17.492Z,16.24
2023-05-15T09:53:53.733Z,15.54
2023-05-15T09:56:21.459Z,15.11
2023-05-15T09:58:54.949Z,14.50
2023-05-15T10:01:25.330Z,15.04
2023-05-15T10:04:00.010Z,15.07
2023-05-15T10:06:26.986Z,14.80
2023-05-15T10:08:54.185Z,14.70
2023-05-15T10:11:22.153Z,14.98
2023-05-15T10:13:49.316Z,14.64
2023-05-15T10:16:16.183Z,13.76
2023-05-15T10:18:45.312Z,13.99
2023-05-15T10:21:12.207Z,14.65
2023-05-15T10:23:40.543Z,14.93
2023-05-15T10:26:15.914Z,15.17
2023-05-15T10:28:44.806Z,14.79
2023-05-15T10:31:11.913Z,13.61
2023-05-15T10:33:38.760Z,12.91
2023-05-15T10:36:05.872Z,12.48
2023-05-15T10:38:33.181Z,12.48
2023-05-15T10:41:16.143Z,13.98
2023-05-15T10:43:44.495Z,14.40
2023-05-15T10:46:11.307Z,14.86
2023-05-15T10:48:38.366Z,13.76
2023-05-15T10:51:05.300Z,13.67
2023-05-15T10:53:32.843Z,13.75
2023-05-15T10:55:59.733Z,12.79
2023-05-15T10:58:26.475Z,12.32
2023-05-15T11:00:53.352Z,13.45
2023-05-15T11:03:48.593Z,13.67
2023-05-15T11:06:16.610Z,14.14
2023-05-15T11:08:44.630Z,14.78
2023-05-15T11:11:55.257Z,15.18
2023-05-15T11:14:28.322Z,15.94
2023-05-15T11:16:56.895Z,17.48
2023-05-15T11:19:53.884Z,18.09
2023-05-15T11:22:30.836Z,18.32
2023-05-15T11:24:59.449Z,18.77
2023-05-15T11:27:28.509Z,18.26
2023-05-15T11:30:07.974Z,18.55
2023-05-15T11:32:47.412Z,18.44
2023-05-15T11:35:32.153Z,19.04
2023-05-15T11:38:03.389Z,20.05
2023-05-15T11:40:31.994Z,20.78
2023-05-15T11:43:21.275Z,21.06
2023-05-15T11:45:52.130Z,20.64
2023-05-15T11:48:19.291Z,20.98
2023-05-15T11:50:46.513Z,20.69
2023-05-15T11:53:14.156Z,20.90
2023-05-15T11:55:42.772Z,20.99
2023-05-15T11:58:14.602Z,20.72
2023-05-15T12:00:42.388Z,20.77
2023-05-15T12:03:17.185Z,21.59
2023-05-15T12:05:54.057Z,21.33
2023-05-15T12:08:25.756Z,22.12
2023-05-15T12:10:53.281Z,21.33
2023-05-15T12:13:20.664Z,21.35
2023-05-15T12:15:47.620Z,21.65
2023-05-15T12:18:14.659Z,21.54
2023-05-15T12:20:46.184Z,22.04
2023-05-15T12:23:16.928Z,22.05
2023-05-15T12:25:45.107Z,22.29
2023-05-15T12:28:12.139Z,22.74
2023-05-15T12:30:39.317Z,22.81
2023-05-15T12:33:07.088Z,22.44
2023-05-15T12:35:36.875Z,22.67
2023-05-15T12:38:04.745Z,22.86
2023-05-15T12:40:35.375Z,23.00
2023-05-15T12:43:06.518Z,23.16
2023-05-15T12:45:34.779Z,23.13
2023-05-15T12:48:03.202Z,23.33
2023-05-15T12:50:32.293Z,22.36
2023-05-15T12:53:05.758Z,22.60
2023-05-15T12:55:34.340Z,22.42
2023-05-15T12:58:08.732Z,22.42
2023-05-15T13:00:36.726Z,22.64
2023-05-15T13:03:06.112Z,23.33
2023-05-15T13:05:34.415Z,22.53
2023-05-15T13:08:05.800Z,22.79
2023-05-15T13:10:33.805Z,22.62
2023-05-15T13:13:00.844Z,22.39
2023-05-15T13:15:30.155Z,22.18
2023-05-15T13:18:01.328Z,22.01
2023-05-15T13:20:29.598Z,19.23
2023-05-15T13:22:56.400Z,18.97
2023-05-15T13:25:23.150Z,17.93
2023-05-15T13:27:50.375Z,16.84
2023-05-15T13:30:17.792Z,16.64
2023-05-15T13:32:45.272Z,16.62
2023-05-15T13:35:12.379Z,16.87
2023-05-15T13:37:39.411Z,16.53
2023-05-15T13:40:10.239Z,16.79
2023-05-15T13:42:38.028Z,16.22
2023-05-15T13:45:05.365Z,15.77
2023-05-15T13:47:32.575Z,15.64
2023-05-15T13:50:00.342Z,15.36
2023-05-15T13:52:27.351Z,15.41
2023-05-15T13:54:55.512Z,14.71
2023-05-15T13:57:22.601Z,14.60
2023-05-15T13:59:49.659Z,14.49
2023-05-15T14:02:16.498Z,14.54
2023-05-15T14:04:43.412Z,14.86
2023-05-15T14:07:10.757Z,14.92
2023-05-15T14:09:38.148Z,15.00
2023-05-15T14:12:05.016Z,14.69
2023-05-15T14:14:32.113Z,14.81
2023-05-15T14:16:59.032Z,15.15
2023-05-15T14:19:26.423Z,15.13
2023-05-15T14:21:53.608Z,14.91
2023-05-15T14:24:20.441Z,14.72
2023-05-15T14:26:48.000Z,15.08
2023-05-15T14:29:14.817Z,15.38
2023-05-15T14:31:42.733Z,15.84
2023-05-15T14:34:09.666Z,16.94
2023-05-15T14:36:36.808Z,17.25
2023-05-15T14:39:03.729Z,17.32
2023-05-15T14:41:31.239Z,17.16
2023-05-15T14:43:58.327Z,17.23
2023-05-15T14:46:25.771Z,17.30
2023-05-15T14:48:55.421Z,17.14
2023-05-15T14:51:27.421Z,17.77
2023-05-15T14:53:54.394Z,17.41
2023-05-15T14:56:21.897Z,17.63
2023-05-15T14:58:50.462Z,17.76
2023-05-15T15:01:17.370Z,18.64
2023-05-15T15:03:44.883Z,18.01
2023-05-15T15:06:12.576Z,18.24
2023-05-15T15:08:39.338Z,18.16
2023-05-15T15:11:07.605Z,17.93
2023-05-15T15:13:35.000Z,18.32
2023-05-15T15:16:02.153Z,18.42
2023-05-15T15:18:29.296Z,18.45
2023-05-15T15:20:56.390Z,18.38
2023-05-15T15:23:23.356Z,18.62
2023-05-15T15:25:50.365Z,19.12
2023-05-15T15:28:22.473Z,18.87
2023-05-15T15:30:49.347Z,18.96
2023-05-15T15:33:16.280Z,19.01
2023-05-15T15:35:43.604Z,19.11
2023-05-15T15:38:13.131Z,19.23
2023-05-15T15:40:40.360Z,19.44
2023-05-15T15:43:07.627Z,19.44
2023-05-15T15:45:34.605Z,19.34
2023-05-15T15:48:01.639Z,19.57
2023-05-15T15:50:28.940Z,19.70
2023-05-15T15:52:55.763Z,19.87
2023-05-15T15:55:22.714Z,20.06
2023-05-15T15:57:49.804Z,19.97
2023-05-15T16:00:17.380Z,19.86
2023-05-15T16:02:45.062Z,19.96
2023-05-15T16:05:12.701Z,20.28
2023-05-15T16:07:39.944Z,20.29
2023-05-15T16:10:12.822Z,20.44
2023-05-15T16:12:41.917Z,20.74
2023-05-15T16:15:21.590Z,20.76
2023-05-15T16:17:52.861Z,21.19
2023-05-15T16:20:21.157Z,21.38
2023-05-15T16:22:48.096Z,21.63
2023-05-15T16:25:14.987Z,21.62
2023-05-15T16:27:42.263Z,21.89
2023-05-15T16:30:11.116Z,22.23
2023-05-15T16:32:39.004Z,22.49
2023-05-15T16:35:07.123Z,22.91
2023-05-15T16:37:35.223Z,23.08
2023-05-15T16:40:03.433Z,23.35
2023-05-15T16:42:35.464Z,23.67
2023-05-15T16:45:03.442Z,24.04
2023-05-15T16:47:31.188Z,24.42
2023-05-15T16:49:58.854Z,24.55
2023-05-15T16:52:26.131Z,24.91
2023-05-15T16:54:54.218Z,25.05
2023-05-15T16:57:21.281Z,25.37
2023-05-15T16:59:49.251Z,25.57
2023-05-15T17:02:16.906Z,25.67
2023-05-15T17:04:43.762Z,25.97
2023-05-15T17:07:11.255Z,26.35
2023-05-15T17:09:40.291Z,26.64
2023-05-15T17:12:07.606Z,26.94
2023-05-15T17:14:35.410Z,27.24
2023-05-15T17:17:02.420Z,27.43
2023-05-15T17:19:34.075Z,27.57
2023-05-15T17:22:00.918Z,27.98
2023-05-15T17:24:38.538Z,27.83
2023-05-15T17:27:15.772Z,27.82
2023-05-15T17:29:42.684Z,27.94
2023-05-15T17:32:09.774Z,28.21
2023-05-15T17:34:37.206Z,28.42
2023-05-15T17:37:06.333Z,28.57
2023-05-15T17:39:33.507Z,28.98
2023-05-15T17:42:02.852Z,29.08
2023-05-15T17:44:36.261Z,29.25
2023-05-15T17:47:03.348Z,29.47
2023-05-15T17:49:30.695Z,29.52
2023-05-15T17:51:58.362Z,29.79
2023-05-15T17:54:25.716Z,29.99
2023-05-15T17:56:52.933Z,30.34
2023-05-15T17:59:19.814Z,30.43
2023-05-15T18:01:46.746Z,30.56
2023-05-15T18:04:14.213Z,30.60
2023-05-15T18:06:41.582Z,30.75
2023-05-15T18:09:09.242Z,30.90
2023-05-15T18:11:36.765Z,31.30
2023-05-15T18:14:03.736Z,31.60
2023-05-15T18:16:32.273Z,31.68
2023-05-15T18:19:04.557Z,32.15
2023-05-15T18:21:32.284Z,32.74
2023-05-15T18:23:59.290Z,32.72
2023-05-15T18:26:28.614Z,33.12
2023-05-15T18:28:55.923Z,32.90
2023-05-15T18:31:22.833Z,32.85
2023-05-15T18:33:49.789Z,32.92
2023-05-15T18:36:16.577Z,33.14
2023-05-15T18:38:49.261Z,33.00
2023-05-15T18:41:16.335Z,32.93
2023-05-15T18:43:43.260Z,30.97
2023-05-15T18:46:10.328Z,30.30
2023-05-15T18:48:37.324Z,30.17
2023-05-15T18:51:04.218Z,30.59
2023-05-15T18:53:31.087Z,30.38
2023-05-15T18:55:57.940Z,30.40
2023-05-15T18:58:25.009Z,29.81
2023-05-15T19:00:52.088Z,30.12
2023-05-15T19:03:20.936Z,31.15
2023-05-15T19:05:48.423Z,31.84
2023-05-15T19:08:15.329Z,30.59
2023-05-15T19:10:47.989Z,30.33
2023-05-15T19:13:14.913Z,29.93
2023-05-15T19:15:50.183Z,30.74
2023-05-15T19:18:18.125Z,31.05
2023-05-15T19:20:49.445Z,31.42
2023-05-15T19:23:16.752Z,31.57
2023-05-15T19:25:44.374Z,31.72
2023-05-15T19:28:13.015Z,32.39
2023-05-15T19:30:40.888Z,33.28
2023-05-15T19:33:08.419Z,33.04
2023-05-15T19:35:37.486Z,33.53
2023-05-15T19:38:05.056Z,34.67
2023-05-15T19:40:32.195Z,34.97
2023-05-15T19:42:59.001Z,32.73
2023-05-15T19:45:25.884Z,33.78
2023-05-15T19:47:52.754Z,33.31
2023-05-15T19:50:19.782Z,33.17
2023-05-15T19:52:47.027Z,35.05
2023-05-15T19:55:13.939Z,35.60
2023-05-15T19:57:42.109Z,34.69
2023-05-15T20:00:10.020Z,34.31
2023-05-15T20:02:38.101Z,35.56
2023-05-15T20:05:05.532Z,35.88
2023-05-15T20:07:32.483Z,35.32
2023-05-15T20:09:59.286Z,34.98
2023-05-15T20:12:26.189Z,33.91
2023-05-15T20:14:53.068Z,33.52
2023-05-15T20:17:20.210Z,33.12
2023-05-15T20:19:48.934Z,34.97
2023-05-15T20:22:16.853Z,35.25
2023-05-15T20:24:45.397Z,35.41
2023-05-15T20:27:13.396Z,35.63
2023-05-15T20:29:40.833Z,36.40
2023-05-15T20:32:08.051Z,35.95
2023-05-15T20:34:36.585Z,35.38
2023-05-15T20:37:03.978Z,35.79
2023-05-15T20:39:31.392Z,36.43
2023-05-15T20:41:58.243Z,36.15
2023-05-15T20:44:25.138Z,36.05
2023-05-15T20:46:51.989Z,36.08
2023-05-15T20:49:18.926Z,35.99
2023-05-15T20:51:48.124Z,35.56
2023-05-15T20:54:15.745Z,35.50
2023-05-15T20:56:42.821Z,35.96
2023-05-15T20:59:10.439Z,35.62
2023-05-15T21:01:37.541Z,35.72
2023-05-15T21:04:04.775Z,35.95
2023-05-15T21:06:33.374Z,35.61
2023-05-15T21:09:00.160Z,35.84
2023-05-15T21:11:27.835Z,36.22
2023-05-15T21:13:55.016Z,36.73
2023-05-15T21:16:22.470Z,37.17
2023-05-15T21:18:49.805Z,36.94
2023-05-15T21:21:21.916Z,36.68
2023-05-15T21:23:48.749Z,36.51
2023-05-15T21:26:16.195Z,36.85
2023-05-15T21:28:43.146Z,37.62
2023-05-15T21:31:11.017Z,37.47
2023-05-15T21:33:38.149Z,37.76
2023-05-15T21:36:05.312Z,37.77
2023-05-15T21:38:32.376Z,37.67
2023-05-15T21:40:59.364Z,37.77
2023-05-15T21:43:26.285Z,37.21
2023-05-15T21:45:56.367Z,36.90
2023-05-15T21:48:23.388Z,37.69
2023-05-15T21:50:51.417Z,38.07
2023-05-15T21:53:24.172Z,37.99
2023-05-15T21:56:01.323Z,38.07
2023-05-15T21:58:28.360Z,38.72
2023-05-15T22:00:55.387Z,37.98
2023-05-15T22:03:22.732Z,37.54
2023-05-15T22:05:51.060Z,37.42
2023-05-15T22:08:18.643Z,37.19
2023-05-15T22:10:45.801Z,37.09
2023-05-15T22:13:12.775Z,37.03
2023-05-15T22:15:39.993Z,37.24
2023-05-15T22:18:07.642Z,37.34
2023-05-15T22:20:35.700Z,37.25
2023-05-15T22:23:02.555Z,37.29
2023-05-15T22:25:29.632Z,37.19
2023-05-15T22:27:56.427Z,37.28
2023-05-15T22:30:23.234Z,37.28
2023-05-15T22:32:56.049Z,37.38
2023-05-15T22:35:23.043Z,37.43
2023-05-15T22:37:50.027Z,37.47
2023-05-15T22:40:17.004Z,37.53
2023-05-15T22:42:43.959Z,37.65
2023-05-15T22:45:11.481Z,37.84
2023-05-15T22:47:43.830Z,38.19
2023-05-15T22:50:10.915Z,38.13
2023-05-15T22:52:38.521Z,38.43
2023-05-15T22:55:06.812Z,38.59
2023-05-15T22:57:34.156Z,38.25
2023-05-15T23:00:01.128Z,38.30
2023-05-15T23:02:28.236Z,38.28
2023-05-15T23:05:00.585Z,38.54
2023-05-15T23:07:27.607Z,39.46
2023-05-15T23:09:59.564Z,39.66
2023-05-15T23:12:26.403Z,40.15
2023-05-15T23:14:53.382Z,40.04
2023-05-15T23:17:24.082Z,41.83
2023-05-15T23:19:57.124Z,41.06
2023-05-15T23:22:24.152Z,41.56
2023-05-15T23:24:50.986Z,42.06
2023-05-15T23:27:18.075Z,42.21
2023-05-15T23:29:45.883Z,42.32
2023-05-15T23:32:12.973Z,42.56
2023-05-15T23:34:39.897Z,42.80
2023-05-15T23:37:07.167Z,42.74
2023-05-15T23:39:35.450Z,42.68
2023-05-15T23:42:02.815Z,43.04
2023-05-15T23:44:34.932Z,43.31
2023-05-15T23:47:02.053Z,43.64
2023-05-15T23:49:29.131Z,43.75
2023-05-15T23:51:56.133Z,44.16
2023-05-15T23:54:22.926Z,44.03
2023-05-15T23:56:49.885Z,44.41
2023-05-15T23:59:17.039Z,44.67
